createdAt,value
2023-03-03T00:09:30.868Z,221.77
2023-03-03T00:19:41.211Z,226.17
2023-03-03T00:29:49.380Z,219.27
2023-03-03T00:39:54.256Z,244.10
2023-03-03T00:50:22.722Z,235.10
2023-03-03T01:00:27.555Z,235.23
2023-03-03T01:10:36.750Z,239.17
2023-03-03T01:20:42.638Z,235.93
2023-03-03T01:30:46.072Z,240.40
2023-03-03T01:40:56.637Z,226.07
2023-03-03T01:51:04.130Z,237.77
2023-03-03T02:01:15.570Z,263.93
2023-03-03T02:11:20.402Z,249.07
2023-03-03T02:21:27.843Z,247.47
2023-03-03T02:31:33.917Z,249.03
2023-03-03T02:41:46.304Z,243.83
2023-03-03T02:51:52.414Z,245.37
2023-03-03T03:01:56.264Z,238.53
2023-03-03T03:12:02.570Z,243.57
2023-03-03T03:22:09.126Z,238.40
2023-03-03T03:32:14.510Z,243.70
2023-03-03T03:42:18.271Z,244.43
2023-03-03T03:52:23.760Z,236.50
2023-03-03T04:02:27.758Z,243.87
2023-03-03T04:12:38.445Z,238.60
2023-03-03T04:22:46.322Z,243.93
2023-03-03T04:32:51.233Z,247.30
2023-03-03T04:42:58.148Z,244.60
2023-03-03T04:53:03.707Z,245.50
2023-03-03T05:03:08.179Z,242.37
2023-03-03T05:13:15.458Z,256.97
2023-03-03T05:23:19.236Z,246.63
2023-03-03T05:33:24.102Z,239.10
2023-03-03T05:43:28.320Z,269.03
2023-03-03T05:53:33.165Z,269.33
2023-03-03T06:03:36.638Z,282.50
2023-03-03T06:13:42.756Z,300.97
2023-03-03T06:23:46.238Z,339.27
2023-03-03T06:33:51.602Z,343.17
2023-03-03T06:43:55.295Z,359.60
2023-03-03T06:54:04.352Z,335.07
2023-03-03T07:04:20.343Z,358.73
2023-03-03T07:14:25.228Z,367.77
2023-03-03T07:24:31.052Z,377.80
2023-03-03T07:34:41.793Z,357.57
2023-03-03T07:44:46.926Z,332.70
2023-03-03T07:54:52.133Z,320.80
2023-03-03T08:04:56.111Z,326.53
2023-03-03T08:15:21.816Z,327.33
2023-03-03T08:25:25.418Z,337.50
2023-03-03T08:35:30.427Z,336.40
2023-03-03T08:45:34.307Z,329.40
2023-03-03T08:55:39.186Z,316.37
2023-03-03T09:05:42.961Z,320.90
2023-03-03T09:15:49.036Z,307.17
2023-03-03T09:25:53.566Z,305.67
2023-03-03T09:36:12.799Z,317.03
2023-03-03T09:46:24.032Z,317.77
2023-03-03T09:56:35.808Z,330.33
2023-03-03T10:06:45.168Z,329.00
2023-03-03T10:17:07.608Z,332.20
2023-03-03T10:27:36.070Z,341.60
2023-03-03T10:37:52.410Z,313.30
2023-03-03T10:48:24.871Z,322.70
2023-03-03T10:58:48.081Z,331.53
2023-03-03T11:08:57.599Z,344.20
2023-03-03T11:19:30.901Z,347.73
2023-03-03T11:29:51.222Z,376.97
2023-03-03T11:40:02.834Z,365.90
2023-03-03T11:50:14.697Z,347.43
2023-03-03T12:00:30.769Z,355.47
2023-03-03T12:10:40.477Z,328.57
2023-03-03T12:21:02.619Z,326.63
2023-03-03T12:31:31.026Z,304.77
2023-03-03T12:41:41.151Z,294.00
2023-03-03T12:52:08.744Z,256.70
2023-03-03T13:02:44.579Z,276.90
2023-03-03T13:12:54.679Z,274.20
2023-03-03T13:23:09.193Z,271.63
2023-03-03T13:33:18.682Z,251.37
2023-03-03T13:43:28.313Z,255.77
2023-03-03T13:53:45.425Z,258.17
2023-03-03T14:04:10.359Z,251.17
2023-03-03T14:14:31.204Z,258.07
2023-03-03T14:25:01.754Z,253.63
2023-03-03T14:35:20.500Z,235.50
2023-03-03T14:45:36.223Z,235.33
2023-03-03T14:55:43.006Z,238.67
2023-03-03T15:05:53.058Z,235.27
2023-03-03T15:16:16.219Z,225.73
2023-03-03T15:26:30.489Z,228.87
2023-03-03T15:36:41.664Z,232.77
2023-03-03T15:47:16.499Z,227.30
2023-03-03T15:57:30.859Z,224.57
2023-03-03T16:07:49.964Z,230.83
2023-03-03T16:18:03.075Z,232.73
2023-03-03T16:28:17.267Z,233.53
2023-03-03T16:38:29.842Z,228.70
2023-03-03T16:48:44.636Z,229.80
2023-03-03T16:59:05.654Z,221.97
2023-03-03T17:09:39.771Z,226.97
2023-03-03T17:19:57.428Z,240.23
2023-03-03T17:30:13.185Z,232.53
2023-03-03T17:40:29.964Z,230.77
2023-03-03T17:50:56.047Z,233.43
2023-03-03T18:01:13.494Z,224.73
2023-03-03T18:11:42.150Z,217.50
2023-03-03T18:21:55.954Z,222.60
2023-03-03T18:32:19.911Z,226.13
2023-03-03T18:42:41.822Z,224.27
2023-03-03T18:53:15.689Z,214.40
2023-03-03T19:03:32.346Z,216.20
2023-03-03T19:13:51.993Z,224.17
2023-03-03T19:23:59.977Z,217.07
2023-03-03T19:34:13.183Z,217.70
2023-03-03T19:44:41.496Z,218.33
2023-03-03T19:55:03.750Z,210.13
2023-03-03T20:05:22.261Z,216.67
2023-03-03T20:15:38.922Z,221.50
2023-03-03T20:25:47.870Z,223.37
2023-03-03T20:36:08.972Z,222.27
2023-03-03T20:46:23.401Z,208.77
2023-03-03T20:56:37.589Z,214.20
2023-03-03T21:06:41.506Z,215.20
2023-03-03T21:16:46.460Z,221.77
2023-03-03T21:26:55.665Z,215.03
2023-03-03T21:37:02.800Z,222.50
2023-03-03T21:47:08.842Z,224.73
2023-03-03T21:57:14.388Z,233.33
2023-03-03T22:07:18.099Z,233.87
2023-03-03T22:17:25.491Z,235.33
2023-03-03T22:27:28.993Z,238.20
2023-03-03T22:37:33.820Z,238.23
2023-03-03T22:47:37.270Z,238.80
2023-03-03T22:57:42.300Z,231.57
2023-03-03T23:07:45.708Z,233.97
2023-03-03T23:17:50.915Z,223.87
2023-03-03T23:27:54.966Z,232.83
2023-03-03T23:37:59.771Z,226.80
2023-03-03T23:48:03.329Z,220.30
2023-03-03T23:58:08.227Z,206.20
